createdAt,value
2023-04-18T00:00:25.714Z,21.23
2023-04-18T00:03:16.037Z,22.13
2023-04-18T00:06:03.618Z,20.33
2023-04-18T00:08:51.557Z,19.90
2023-04-18T00:11:38.239Z,16.63
2023-04-18T00:14:24.985Z,17.53
2023-04-18T00:17:13.512Z,25.67
2023-04-18T00:20:02.432Z,19.33
2023-04-18T00:22:49.081Z,20.40
2023-04-18T00:25:37.138Z,23.73
2023-04-18T00:28:23.682Z,17.90
2023-04-18T00:31:10.503Z,18.97
2023-04-18T00:33:57.069Z,16.43
2023-04-18T00:36:43.808Z,20.50
2023-04-18T00:39:30.715Z,25.87
2023-04-18T00:42:18.863Z,20.60
2023-04-18T00:45:06.462Z,17.97
2023-04-18T00:47:53.159Z,21.97
2023-04-18T00:50:41.277Z,21.07
2023-04-18T00:53:29.496Z,16.70
2023-04-18T00:56:16.019Z,22.90
2023-04-18T00:59:04.504Z,19.90
2023-04-18T01:01:51.369Z,20.73
2023-04-18T01:04:38.731Z,19.57
2023-04-18T01:07:30.745Z,18.90
2023-04-18T01:10:17.509Z,22.20
2023-04-18T01:13:15.001Z,16.17
2023-04-18T01:16:03.091Z,19.30
2023-04-18T01:18:49.608Z,23.17
2023-04-18T01:21:37.447Z,19.37
2023-04-18T01:24:26.868Z,19.53
2023-04-18T01:27:14.504Z,25.43
2023-04-18T01:30:01.211Z,22.70
2023-04-18T01:32:50.085Z,20.43
2023-04-18T01:35:37.738Z,18.47
2023-04-18T01:38:24.646Z,17.87
2023-04-18T01:41:12.741Z,16.43
2023-04-18T01:43:59.424Z,19.37
2023-04-18T01:46:46.360Z,16.70
2023-04-18T01:49:33.278Z,19.20
2023-04-18T01:52:20.156Z,22.87
2023-04-18T01:55:07.410Z,15.53
2023-04-18T01:57:56.648Z,18.43
2023-04-18T02:00:43.553Z,21.33
2023-04-18T02:03:30.409Z,18.43
2023-04-18T02:06:17.627Z,17.67
2023-04-18T02:09:04.246Z,20.50
2023-04-18T02:11:51.099Z,19.13
2023-04-18T02:14:39.124Z,18.00
2023-04-18T02:17:25.808Z,17.47
2023-04-18T02:20:15.880Z,22.67
2023-04-18T02:23:03.562Z,21.07
2023-04-18T02:25:50.893Z,21.97
2023-04-18T02:28:39.203Z,18.10
2023-04-18T02:31:27.238Z,16.23
2023-04-18T02:34:14.230Z,18.53
2023-04-18T02:37:01.528Z,22.33
2023-04-18T02:39:48.123Z,17.80
2023-04-18T02:42:34.852Z,26.10
2023-04-18T02:45:21.789Z,23.17
2023-04-18T02:48:09.724Z,15.37
2023-04-18T02:51:03.441Z,18.43
2023-04-18T02:53:55.051Z,19.83
2023-04-18T02:56:42.964Z,16.20
2023-04-18T02:59:35.879Z,20.03
2023-04-18T03:02:41.463Z,21.90
2023-04-18T03:05:49.968Z,18.97
2023-04-18T03:08:36.700Z,19.60
2023-04-18T03:11:23.441Z,18.97
2023-04-18T03:14:10.437Z,18.30
2023-04-18T03:17:05.434Z,21.03
2023-04-18T03:19:58.448Z,14.17
2023-04-18T03:22:46.573Z,17.53
2023-04-18T03:25:35.399Z,17.80
2023-04-18T03:28:24.044Z,19.50
2023-04-18T03:31:10.954Z,18.80
2023-04-18T03:33:59.917Z,19.13
2023-04-18T03:36:47.943Z,19.77
2023-04-18T03:39:37.254Z,19.23
2023-04-18T03:42:24.482Z,20.80
2023-04-18T03:45:11.850Z,18.53
2023-04-18T03:47:58.992Z,21.03
2023-04-18T03:50:45.582Z,17.83
2023-04-18T03:53:32.483Z,18.03
2023-04-18T03:56:20.588Z,18.70
2023-04-18T03:59:10.940Z,24.60
2023-04-18T04:01:58.642Z,17.57
2023-04-18T04:04:45.521Z,18.67
2023-04-18T04:07:32.605Z,18.73
2023-04-18T04:10:19.326Z,16.80
2023-04-18T04:13:09.008Z,17.00
2023-04-18T04:15:58.883Z,22.80
2023-04-18T04:18:46.038Z,18.57
2023-04-18T04:21:33.754Z,19.27
2023-04-18T04:24:22.746Z,19.60
2023-04-18T04:27:12.673Z,22.33
2023-04-18T04:30:02.694Z,19.63
2023-04-18T04:32:49.494Z,18.43
2023-04-18T04:35:36.774Z,16.07
2023-04-18T04:38:25.070Z,18.03
2023-04-18T04:41:13.804Z,22.57
2023-04-18T04:44:01.920Z,18.40
2023-04-18T04:46:54.544Z,21.73
2023-04-18T04:49:45.244Z,20.17
2023-04-18T04:52:32.717Z,24.17
2023-04-18T04:55:19.558Z,21.13
2023-04-18T04:58:05.987Z,20.77
2023-04-18T05:01:07.727Z,21.10
2023-04-18T05:03:56.077Z,22.17
2023-04-18T05:06:42.771Z,24.73
2023-04-18T05:09:29.716Z,15.83
2023-04-18T05:12:16.446Z,18.10
2023-04-18T05:15:03.218Z,18.40
2023-04-18T05:17:50.205Z,20.40
2023-04-18T05:20:38.269Z,17.60
2023-04-18T05:23:25.351Z,16.43
2023-04-18T05:26:11.930Z,20.13
2023-04-18T05:28:58.619Z,14.77
2023-04-18T05:31:45.554Z,19.67
2023-04-18T05:34:32.562Z,18.40
2023-04-18T05:37:20.742Z,19.30
2023-04-18T05:40:09.514Z,17.87
2023-04-18T05:42:56.045Z,22.63
2023-04-18T05:45:43.002Z,16.63
2023-04-18T05:48:29.754Z,21.07
2023-04-18T05:51:16.544Z,19.20
2023-04-18T05:54:05.007Z,15.63
2023-04-18T05:56:51.615Z,15.97
2023-04-18T05:59:38.181Z,27.43
2023-04-18T06:02:25.092Z,19.47
2023-04-18T06:05:12.085Z,20.93
2023-04-18T06:07:59.377Z,17.37
2023-04-18T06:10:47.524Z,13.77
2023-04-18T06:13:34.418Z,20.83
2023-04-18T06:16:21.319Z,18.47
2023-04-18T06:19:08.178Z,19.40
2023-04-18T06:21:55.317Z,16.63
2023-04-18T06:24:41.702Z,20.17
2023-04-18T06:27:31.817Z,17.20
2023-04-18T06:30:21.916Z,16.53
2023-04-18T06:33:10.530Z,16.60
2023-04-18T06:35:57.221Z,18.90
2023-04-18T06:38:44.030Z,15.03
2023-04-18T06:41:30.662Z,13.67
2023-04-18T06:44:18.953Z,15.57
2023-04-18T06:47:05.708Z,20.20
2023-04-18T06:49:52.423Z,16.73
2023-04-18T06:52:44.469Z,17.47
2023-04-18T06:55:31.460Z,16.20
2023-04-18T06:58:18.209Z,12.00
2023-04-18T07:01:06.601Z,14.27
2023-04-18T07:03:53.159Z,17.37
2023-04-18T07:06:39.856Z,18.53
2023-04-18T07:09:26.627Z,17.80
2023-04-18T07:12:13.457Z,15.17
2023-04-18T07:15:00.160Z,16.10
2023-04-18T07:17:48.263Z,15.57
2023-04-18T07:20:35.200Z,19.67
2023-04-18T07:23:26.238Z,15.73
2023-04-18T07:26:14.390Z,18.70
2023-04-18T07:29:03.166Z,15.60
2023-04-18T07:31:49.990Z,18.43
2023-04-18T07:34:37.891Z,18.53
2023-04-18T07:37:24.691Z,14.30
2023-04-18T07:40:12.350Z,18.83
2023-04-18T07:42:58.963Z,18.20
2023-04-18T07:45:46.266Z,12.73
2023-04-18T07:48:32.991Z,11.47
2023-04-18T07:51:21.409Z,13.60
2023-04-18T07:54:11.174Z,12.27
2023-04-18T07:57:01.893Z,15.70
2023-04-18T07:59:49.336Z,16.10
2023-04-18T08:02:39.684Z,16.43
2023-04-18T08:05:27.799Z,17.10
2023-04-18T08:08:15.918Z,14.60
2023-04-18T08:11:02.973Z,18.63
2023-04-18T08:13:49.404Z,15.53
2023-04-18T08:16:36.430Z,11.30
2023-04-18T08:19:24.316Z,18.97
2023-04-18T08:22:12.412Z,19.67
2023-04-18T08:25:04.836Z,15.63
2023-04-18T08:27:51.782Z,15.67
2023-04-18T08:30:38.592Z,16.73
2023-04-18T08:33:25.504Z,18.33
2023-04-18T08:36:12.232Z,17.60
2023-04-18T08:38:58.876Z,16.30
2023-04-18T08:41:52.155Z,19.60
2023-04-18T08:44:39.067Z,16.47
2023-04-18T08:47:25.963Z,16.30
2023-04-18T08:50:16.653Z,15.30
2023-04-18T08:53:03.448Z,15.20
2023-04-18T08:55:54.693Z,15.20
2023-04-18T08:58:49.722Z,14.93
2023-04-18T09:02:07.146Z,17.10
2023-04-18T09:05:05.296Z,16.07
2023-04-18T09:07:58.765Z,15.00
2023-04-18T09:10:48.304Z,17.93
2023-04-18T09:13:47.698Z,14.73
2023-04-18T09:16:46.994Z,20.87
2023-04-18T09:19:34.003Z,15.77
2023-04-18T09:22:22.034Z,15.57
2023-04-18T09:25:10.098Z,15.87
2023-04-18T09:27:57.429Z,13.10
2023-04-18T09:30:46.660Z,14.87
2023-04-18T09:33:33.719Z,15.70
2023-04-18T09:36:22.052Z,17.83
2023-04-18T09:39:08.873Z,15.77
2023-04-18T09:42:00.583Z,14.23
2023-04-18T09:45:02.353Z,15.03
2023-04-18T09:47:50.725Z,14.90
2023-04-18T09:50:38.002Z,16.97
2023-04-18T09:53:25.645Z,15.30
2023-04-18T09:56:20.913Z,12.23
2023-04-18T09:59:10.124Z,16.00
2023-04-18T10:01:59.270Z,16.27
2023-04-18T10:04:48.305Z,15.93
2023-04-18T10:07:35.253Z,13.70
2023-04-18T10:10:22.083Z,14.17
2023-04-18T10:13:11.285Z,18.03
2023-04-18T10:15:58.270Z,18.33
2023-04-18T10:18:45.056Z,16.60
2023-04-18T10:21:37.976Z,14.80
2023-04-18T10:24:53.120Z,14.73
2023-04-18T10:27:57.565Z,15.17
2023-04-18T10:31:03.672Z,11.67
2023-04-18T10:34:04.126Z,20.87
2023-04-18T10:37:06.465Z,15.07
2023-04-18T10:39:58.724Z,10.70
2023-04-18T10:43:00.919Z,15.43
2023-04-18T10:46:23.825Z,16.90
2023-04-18T10:49:16.903Z,15.20
2023-04-18T10:52:06.920Z,17.17
2023-04-18T10:54:59.483Z,14.40
2023-04-18T10:57:47.598Z,18.90
2023-04-18T11:00:34.545Z,18.93
2023-04-18T11:03:21.111Z,19.13
2023-04-18T11:06:08.158Z,16.73
2023-04-18T11:12:05.471Z,16.40
2023-04-18T11:14:53.384Z,14.53
2023-04-18T11:17:41.537Z,18.83
2023-04-18T11:20:29.393Z,17.63
2023-04-18T11:23:21.549Z,14.07
2023-04-18T11:26:08.856Z,18.07
2023-04-18T11:28:59.592Z,18.83
2023-04-18T11:31:52.274Z,15.57
2023-04-18T11:34:38.759Z,13.70
2023-04-18T11:37:25.531Z,21.43
2023-04-18T11:40:13.966Z,19.33
2023-04-18T11:43:02.987Z,17.47
2023-04-18T11:45:54.470Z,16.50
2023-04-18T11:48:42.247Z,17.60
2023-04-18T11:51:38.402Z,17.17
2023-04-18T11:54:39.058Z,17.07
2023-04-18T11:57:26.935Z,19.67
2023-04-18T12:00:15.042Z,25.07
2023-04-18T12:03:05.477Z,14.50
2023-04-18T12:06:00.083Z,14.67
2023-04-18T12:08:46.776Z,17.47
2023-04-18T12:11:33.646Z,16.33
2023-04-18T12:14:21.712Z,17.10
2023-04-18T12:17:08.271Z,18.23
2023-04-18T12:19:57.751Z,16.60
2023-04-18T12:22:46.232Z,18.77
2023-04-18T12:25:33.641Z,14.57
2023-04-18T12:28:21.254Z,14.13
2023-04-18T12:31:08.239Z,14.37
2023-04-18T12:33:56.788Z,17.13
2023-04-18T12:36:45.634Z,15.40
2023-04-18T12:39:32.205Z,15.10
2023-04-18T12:42:19.133Z,14.10
2023-04-18T12:45:07.804Z,12.10
2023-04-18T12:47:54.620Z,17.43
2023-04-18T12:50:41.184Z,15.53
2023-04-18T12:53:29.353Z,11.20
2023-04-18T12:56:16.419Z,13.10
2023-04-18T12:59:03.011Z,15.20
2023-04-18T13:01:49.923Z,16.43
2023-04-18T13:04:36.809Z,14.53
2023-04-18T13:07:23.357Z,15.63
2023-04-18T13:10:13.332Z,16.97
2023-04-18T13:13:00.003Z,14.40
2023-04-18T13:15:46.823Z,14.20
2023-04-18T13:18:33.548Z,13.77
2023-04-18T13:21:20.260Z,13.10
2023-04-18T13:24:07.516Z,17.10
2023-04-18T13:26:56.547Z,15.10
2023-04-18T13:29:44.223Z,13.33
2023-04-18T13:32:30.642Z,12.70
2023-04-18T13:35:17.307Z,12.93
2023-04-18T13:38:04.205Z,12.80
2023-04-18T13:40:58.245Z,10.83
2023-04-18T13:43:52.673Z,12.70
2023-04-18T13:46:39.480Z,12.10
2023-04-18T13:49:26.271Z,13.70
2023-04-18T13:52:13.099Z,14.40
2023-04-18T13:54:59.946Z,13.13
2023-04-18T13:57:46.977Z,12.50
2023-04-18T14:00:35.163Z,10.00
2023-04-18T14:03:21.789Z,11.03
2023-04-18T14:06:08.611Z,10.13
2023-04-18T14:08:55.311Z,12.97
2023-04-18T14:11:41.899Z,11.43
2023-04-18T14:14:28.818Z,10.63
2023-04-18T14:17:16.980Z,10.90
2023-04-18T14:20:05.098Z,8.33
2023-04-18T14:22:53.411Z,11.53
2023-04-18T14:25:39.943Z,12.83
2023-04-18T14:28:27.649Z,11.27
2023-04-18T14:31:14.648Z,8.43
2023-04-18T14:34:02.736Z,8.67
2023-04-18T14:36:49.242Z,10.07
2023-04-18T14:39:35.968Z,8.50
2023-04-18T14:42:22.989Z,8.17
2023-04-18T14:45:11.381Z,11.80
2023-04-18T14:47:59.210Z,9.13
2023-04-18T14:50:47.311Z,5.67
2023-04-18T14:53:34.531Z,9.07
2023-04-18T14:56:23.657Z,6.73
2023-04-18T14:59:10.272Z,7.93
2023-04-18T15:01:57.054Z,8.67
2023-04-18T15:04:43.929Z,7.40
2023-04-18T15:07:31.904Z,6.27
2023-04-18T15:10:18.897Z,7.07
2023-04-18T15:13:05.725Z,6.67
2023-04-18T15:15:53.106Z,5.63
2023-04-18T15:18:39.899Z,6.30
2023-04-18T15:21:27.324Z,7.33
2023-04-18T15:24:15.734Z,6.27
2023-04-18T15:27:02.637Z,4.10
2023-04-18T15:29:49.397Z,4.43
2023-04-18T15:32:37.005Z,4.03
2023-04-18T15:35:23.474Z,11.30
2023-04-18T15:38:10.816Z,8.30
2023-04-18T15:40:59.216Z,4.03
2023-04-18T15:43:46.025Z,5.20
2023-04-18T15:46:32.865Z,4.67
2023-04-18T15:49:19.746Z,6.90
2023-04-18T15:52:07.442Z,4.17
2023-04-18T15:54:54.895Z,7.37
2023-04-18T15:57:42.839Z,5.17
2023-04-18T16:00:29.460Z,4.20
2023-04-18T16:03:16.480Z,6.00
2023-04-18T16:06:04.662Z,4.23
2023-04-18T16:08:51.509Z,6.07
2023-04-18T16:11:38.350Z,6.90
2023-04-18T16:14:26.652Z,6.27
2023-04-18T16:17:13.485Z,4.10
2023-04-18T16:20:00.482Z,4.60
2023-04-18T16:22:48.193Z,5.63
2023-04-18T16:25:35.038Z,5.33
2023-04-18T16:28:21.980Z,6.47
2023-04-18T16:31:10.247Z,6.67
2023-04-18T16:33:57.193Z,4.77
2023-04-18T16:36:44.088Z,7.40
2023-04-18T16:39:31.345Z,4.87
2023-04-18T16:42:18.184Z,6.20
2023-04-18T16:45:05.678Z,4.07
2023-04-18T16:47:53.591Z,5.80
2023-04-18T16:50:40.395Z,9.03
2023-04-18T16:53:27.095Z,6.67
2023-04-18T16:56:13.925Z,5.80
2023-04-18T16:59:00.630Z,6.27
2023-04-18T17:01:47.491Z,7.37
2023-04-18T17:04:35.700Z,8.00
2023-04-18T17:07:22.563Z,7.30
2023-04-18T17:10:10.669Z,8.57
2023-04-18T17:12:57.265Z,9.43
2023-04-18T17:15:44.234Z,8.47
2023-04-18T17:18:30.928Z,6.80
2023-04-18T17:21:19.197Z,6.63
2023-04-18T17:24:07.169Z,7.67
2023-04-18T17:26:53.987Z,7.37
2023-04-18T17:29:41.011Z,6.17
2023-04-18T17:32:27.529Z,5.23
2023-04-18T17:35:15.297Z,5.33
2023-04-18T17:38:03.425Z,6.27
2023-04-18T17:40:50.237Z,5.43
2023-04-18T17:43:37.507Z,6.67
2023-04-18T17:46:24.072Z,7.20
2023-04-18T17:49:11.396Z,5.83
2023-04-18T17:51:58.254Z,8.10
2023-04-18T17:54:46.421Z,6.00
2023-04-18T17:57:33.688Z,5.87
2023-04-18T18:00:20.536Z,8.73
2023-04-18T18:03:09.375Z,5.23
2023-04-18T18:05:56.004Z,8.33
2023-04-18T18:08:44.541Z,5.30
2023-04-18T18:11:32.567Z,8.20
2023-04-18T18:14:20.216Z,8.07
2023-04-18T18:17:06.725Z,11.03
2023-04-18T18:19:53.540Z,6.30
2023-04-18T18:22:40.690Z,6.60
2023-04-18T18:25:28.651Z,8.10
2023-04-18T18:28:16.923Z,5.33
2023-04-18T18:31:03.618Z,9.20
2023-04-18T18:33:50.443Z,6.60
2023-04-18T18:36:37.841Z,6.03
2023-04-18T18:39:25.153Z,5.83
2023-04-18T18:42:11.938Z,4.80
2023-04-18T18:45:02.514Z,11.43
2023-04-18T18:47:51.198Z,8.17
2023-04-18T18:50:39.315Z,6.83
2023-04-18T18:53:27.183Z,8.10
2023-04-18T18:56:15.257Z,6.73
2023-04-18T18:59:02.722Z,5.90
2023-04-18T19:01:52.268Z,8.17
2023-04-18T19:04:39.116Z,7.67
2023-04-18T19:07:25.915Z,7.07
2023-04-18T19:10:12.603Z,8.70
2023-04-18T19:13:00.332Z,5.90
2023-04-18T19:15:46.954Z,7.40
2023-04-18T19:18:37.218Z,9.83
2023-04-18T19:21:23.881Z,6.53
2023-04-18T19:24:11.870Z,9.63
2023-04-18T19:26:59.778Z,6.40
2023-04-18T19:29:46.426Z,6.50
2023-04-18T19:32:33.649Z,7.90
2023-04-18T19:35:21.950Z,8.47
2023-04-18T19:38:08.547Z,7.27
2023-04-18T19:40:55.237Z,6.93
2023-04-18T19:43:42.634Z,7.13
2023-04-18T19:46:29.218Z,6.83
2023-04-18T19:49:16.276Z,8.63
2023-04-18T19:52:04.717Z,10.37
2023-04-18T19:54:53.157Z,11.23
2023-04-18T19:57:41.351Z,13.17
2023-04-18T20:00:28.263Z,12.27
2023-04-18T20:03:16.353Z,9.50
2023-04-18T20:06:05.538Z,8.83
2023-04-18T20:08:54.261Z,8.40
2023-04-18T20:11:40.966Z,10.27
2023-04-18T20:14:28.388Z,10.37
2023-04-18T20:17:18.611Z,10.83
2023-04-18T20:20:08.974Z,9.87
2023-04-18T20:22:55.601Z,7.43
2023-04-18T20:25:44.101Z,10.17
2023-04-18T20:28:31.384Z,7.77
2023-04-18T20:31:19.108Z,9.00
2023-04-18T20:34:06.719Z,8.07
2023-04-18T20:36:53.233Z,6.40
2023-04-18T20:39:40.005Z,7.07
2023-04-18T20:42:28.442Z,9.30
2023-04-18T20:45:15.152Z,8.90
2023-04-18T20:48:02.404Z,9.20
2023-04-18T20:50:51.974Z,10.03
2023-04-18T20:53:38.576Z,8.50
2023-04-18T20:56:25.578Z,10.37
2023-04-18T20:59:13.899Z,11.27
2023-04-18T21:02:00.970Z,9.90
2023-04-18T21:04:47.803Z,13.63
2023-04-18T21:07:34.327Z,9.83
2023-04-18T21:10:21.283Z,9.00
2023-04-18T21:13:09.341Z,10.77
2023-04-18T21:15:57.414Z,8.03
2023-04-18T21:18:44.354Z,9.90
2023-04-18T21:21:31.669Z,7.97
2023-04-18T21:24:18.571Z,7.97
2023-04-18T21:27:05.467Z,10.87
2023-04-18T21:29:52.226Z,11.50
2023-04-18T21:32:40.432Z,9.23
2023-04-18T21:35:29.728Z,12.10
2023-04-18T21:38:16.310Z,9.10
2023-04-18T21:41:09.442Z,10.53
2023-04-18T21:43:59.459Z,6.73
2023-04-18T21:46:48.043Z,7.50
2023-04-18T21:49:36.166Z,7.30
2023-04-18T21:52:22.986Z,11.47
2023-04-18T21:55:10.573Z,6.10
2023-04-18T21:57:57.067Z,10.60
2023-04-18T22:00:43.844Z,10.33
2023-04-18T22:03:31.639Z,8.63
2023-04-18T22:06:23.588Z,6.83
2023-04-18T22:09:13.674Z,8.57
2023-04-18T22:12:00.391Z,9.47
2023-04-18T22:14:48.645Z,7.17
2023-04-18T22:17:38.737Z,7.20
2023-04-18T22:20:26.983Z,6.43
2023-04-18T22:23:16.336Z,13.30
2023-04-18T22:26:02.790Z,7.30
2023-04-18T22:28:49.579Z,10.47
2023-04-18T22:31:36.584Z,6.30
2023-04-18T22:34:23.172Z,6.87
2023-04-18T22:37:09.840Z,10.23
2023-04-18T22:40:01.976Z,8.43
2023-04-18T22:42:51.969Z,7.87
2023-04-18T22:45:38.707Z,8.60
2023-04-18T22:48:25.536Z,7.37
2023-04-18T22:51:14.955Z,8.47
2023-04-18T22:54:01.751Z,9.90
2023-04-18T22:56:51.739Z,8.67
2023-04-18T22:59:38.390Z,7.03
2023-04-18T23:02:25.554Z,6.60
2023-04-18T23:05:12.292Z,4.73
2023-04-18T23:08:00.389Z,11.53
2023-04-18T23:10:47.258Z,6.67
2023-04-18T23:13:35.490Z,4.60
2023-04-18T23:16:23.122Z,7.77
2023-04-18T23:19:10.003Z,6.73
2023-04-18T23:21:56.792Z,5.47
2023-04-18T23:24:43.695Z,7.83
2023-04-18T23:27:31.754Z,11.20
2023-04-18T23:30:21.591Z,7.73
2023-04-18T23:33:10.463Z,8.00
2023-04-18T23:35:58.742Z,5.73
2023-04-18T23:38:47.609Z,7.60
2023-04-18T23:41:34.319Z,5.33
2023-04-18T23:44:22.869Z,4.90
2023-04-18T23:47:13.276Z,5.03
2023-04-18T23:50:01.739Z,5.17
2023-04-18T23:52:50.150Z,7.37
2023-04-18T23:55:37.028Z,4.37
2023-04-18T23:58:27.053Z,4.97
